Time;durP1;ratioP1;P1;durP2;ratioP2;P2;SDS_P1;SDS_P2;PMS_P1;PMS_P2;Temp;Humidity;BMP_temperature;BMP_pressure;BME280_temperature;BME280_humidity;BME280_pressure;Samples;Min_cycle;Max_cycle;Signal;HPM_P1;HPM_P2
2021/03/31 00:02:19;;;;;;;40.97;30.85;;;11.60;86.10;;;;;;4997425;28;20286;-63
2021/03/31 00:04:46;;;;;;;39.22;29.10;;;11.50;86.60;;;;;;4999201;28;20252;-64
2021/03/31 00:07:12;;;;;;;44.78;29.88;;;11.40;87.40;;;;;;4999090;28;20605;-64
2021/03/31 00:09:39;;;;;;;45.85;29.48;;;11.50;87.50;;;;;;4997453;28;20220;-64
2021/03/31 00:12:07;;;;;;;43.38;29.70;;;11.40;87.00;;;;;;5000813;28;20212;-63
2021/03/31 00:14:35;;;;;;;44.20;30.10;;;11.40;86.70;;;;;;4997666;28;20217;-64
2021/03/31 00:17:02;;;;;;;42.42;28.00;;;11.40;87.00;;;;;;4999146;28;20272;-64
2021/03/31 00:19:30;;;;;;;43.40;28.77;;;11.30;86.90;;;;;;4995661;28;20271;-63
2021/03/31 00:21:56;;;;;;;41.03;29.42;;;11.30;86.70;;;;;;4992426;28;20518;-62
2021/03/31 00:24:23;;;;;;;38.92;27.90;;;11.30;86.60;;;;;;4996135;28;20238;-64
2021/03/31 00:26:50;;;;;;;43.13;30.85;;;11.30;86.70;;;;;;4997332;28;20213;-64
2021/03/31 00:29:16;;;;;;;41.95;28.40;;;11.30;86.60;;;;;;4989559;28;20503;-63
2021/03/31 00:31:43;;;;;;;42.15;30.35;;;11.30;86.70;;;;;;4991047;28;20236;-64
2021/03/31 00:34:09;;;;;;;39.00;29.00;;;11.30;86.70;;;;;;4984354;28;20549;-63
2021/03/31 00:36:36;;;;;;;44.90;30.17;;;11.20;87.60;;;;;;5009239;28;20510;-63
2021/03/31 00:39:06;;;;;;;39.03;29.20;;;11.20;87.70;;;;;;5002798;28;20242;-63
2021/03/31 00:41:32;;;;;;;45.05;28.65;;;11.20;87.00;;;;;;5003601;28;20247;-63
2021/03/31 00:43:59;;;;;;;44.45;28.42;;;11.20;86.60;;;;;;5009000;28;20236;-64
2021/03/31 00:46:25;;;;;;;48.00;29.25;;;11.20;86.50;;;;;;5011174;28;20212;-63
2021/03/31 00:48:52;;;;;;;41.97;28.45;;;11.20;86.80;;;;;;5010405;28;20274;-63
2021/03/31 00:51:19;;;;;;;36.22;27.55;;;11.00;88.80;;;;;;5006498;28;20516;-64
2021/03/31 00:53:46;;;;;;;37.38;27.73;;;10.80;89.80;;;;;;4997264;28;20531;-63
2021/03/31 00:56:12;;;;;;;42.50;28.50;;;10.90;88.30;;;;;;4997169;28;20221;-63
2021/03/31 00:58:39;;;;;;;41.47;27.98;;;11.00;88.20;;;;;;4997202;28;20304;-64
2021/03/31 01:01:07;;;;;;;41.28;31.73;;;10.90;88.70;;;;;;4983461;28;20526;-62
2021/03/31 01:03:34;;;;;;;39.97;28.60;;;10.80;89.60;;;;;;4997256;28;20267;-64
2021/03/31 01:06:00;;;;;;;42.65;28.48;;;10.80;89.50;;;;;;4979601;28;20220;-65
2021/03/31 01:08:27;;;;;;;43.08;31.30;;;10.70;89.70;;;;;;4989252;28;20499;-65
2021/03/31 01:10:57;;;;;;;37.55;27.67;;;10.80;89.60;;;;;;4991683;28;20304;-63
2021/03/31 01:13:45;;;;;;;37.35;27.77;;;10.60;90.00;;;;;;4990250;28;20213;-62
2021/03/31 01:16:24;;;;;;;40.10;29.83;;;10.60;89.50;;;;;;4984289;28;20224;-64
2021/03/31 01:19:02;;;;;;;38.95;27.90;;;10.70;88.80;;;;;;5000807;28;20208;-63
2021/03/31 01:22:07;;;;;;;35.65;26.20;;;10.80;88.10;;;;;;5001858;28;20208;-63
2021/03/31 01:24:52;;;;;;;37.15;27.58;;;10.80;88.00;;;;;;4977807;28;20238;-63
2021/03/31 01:27:43;;;;;;;38.67;27.23;;;10.80;87.80;;;;;;4997475;28;20215;-64
2021/03/31 01:30:12;;;;;;;39.15;27.63;;;10.80;87.50;;;;;;4998258;28;20209;-64
2021/03/31 01:33:25;;;;;;;39.90;26.63;;;10.80;87.50;;;;;;4995040;28;20205;-63
2021/03/31 01:35:52;;;;;;;33.92;25.27;;;10.80;87.50;;;;;;4998156;28;20240;-63
2021/03/31 01:38:23;;;;;;;32.47;26.77;;;10.80;87.50;;;;;;5004551;28;20728;-64
2021/03/31 01:40:52;;;;;;;38.15;27.90;;;10.80;87.80;;;;;;4999981;28;20248;-64
2021/03/31 01:43:22;;;;;;;38.83;27.00;;;10.70;88.10;;;;;;4993308;28;20213;-63
2021/03/31 01:45:55;;;;;;;38.60;27.42;;;10.60;89.40;;;;;;4999893;28;20271;-64
2021/03/31 01:48:31;;;;;;;45.15;28.55;;;10.50;89.90;;;;;;4993651;28;20309;-64
2021/03/31 01:51:06;;;;;;;35.80;25.70;;;10.50;90.00;;;;;;4994529;28;20212;-63
2021/03/31 01:53:34;;;;;;;34.38;25.42;;;10.50;89.70;;;;;;4986415;28;20532;-64
2021/03/31 01:56:02;;;;;;;36.33;26.30;;;10.50;88.80;;;;;;4998263;28;20211;-66
2021/03/31 01:58:31;;;;;;;35.47;26.05;;;10.50;88.80;;;;;;5003023;28;20216;-64
2021/03/31 02:00:58;;;;;;;37.58;25.35;;;10.50;89.40;;;;;;5007286;28;20224;-64
2021/03/31 02:03:26;;;;;;;34.20;25.40;;;10.50;89.60;;;;;;5006080;28;20238;-64
2021/03/31 02:05:55;;;;;;;36.00;25.25;;;10.50;88.90;;;;;;5000803;28;20227;-64
2021/03/31 02:08:23;;;;;;;36.45;26.05;;;10.50;88.70;;;;;;4999312;28;20621;-65
2021/03/31 02:10:51;;;;;;;32.38;24.85;;;10.50;88.40;;;;;;4998804;28;20534;-64
2021/03/31 02:13:18;;;;;;;36.08;24.20;;;10.50;88.40;;;;;;5000167;28;20204;-64
2021/03/31 02:15:47;;;;;;;34.85;26.30;;;10.50;88.50;;;;;;4999208;28;20223;-63
2021/03/31 02:18:18;;;;;;;40.50;26.23;;;10.40;90.10;;;;;;5000014;28;20294;-64
2021/03/31 02:20:46;;;;;;;34.65;24.80;;;10.10;90.90;;;;;;5000490;28;20212;-64
2021/03/31 02:23:14;;;;;;;35.83;25.08;;;10.10;90.70;;;;;;4998971;28;20207;-64
2021/03/31 02:25:40;;;;;;;41.10;27.13;;;10.20;90.50;;;;;;4999182;28;20658;-64
2021/03/31 02:28:08;;;;;;;35.83;25.83;;;10.20;90.50;;;;;;4999134;28;20209;-65
2021/03/31 02:30:34;;;;;;;43.17;27.73;;;10.20;90.60;;;;;;5001515;28;20503;-65
2021/03/31 02:33:05;;;;;;;37.47;26.73;;;10.00;90.70;;;;;;5001056;28;20793;-64
2021/03/31 02:35:34;;;;;;;38.95;26.70;;;10.10;90.50;;;;;;4985366;28;20214;-64
2021/03/31 02:38:07;;;;;;;42.30;26.40;;;10.10;90.40;;;;;;5009080;28;20226;-65
2021/03/31 02:40:36;;;;;;;43.63;27.40;;;10.10;90.30;;;;;;4985206;28;20220;-63
2021/03/31 02:43:07;;;;;;;47.58;28.40;;;10.20;90.30;;;;;;4990425;28;20221;-63
2021/03/31 02:45:35;;;;;;;40.33;28.40;;;10.20;90.20;;;;;;4997064;28;20597;-63
2021/03/31 02:48:05;;;;;;;35.88;26.73;;;10.10;90.40;;;;;;4999838;28;20303;-64
2021/03/31 02:50:32;;;;;;;36.67;27.10;;;10.10;90.40;;;;;;4998607;28;20204;-64
2021/03/31 02:53:00;;;;;;;34.47;26.15;;;10.20;90.40;;;;;;4998744;28;20211;-63
2021/03/31 02:55:27;;;;;;;44.08;26.98;;;10.10;90.40;;;;;;4998373;28;20221;-63
2021/03/31 02:57:56;;;;;;;38.70;29.38;;;10.10;90.40;;;;;;4998476;28;20305;-64
2021/03/31 03:00:24;;;;;;;34.85;26.60;;;10.10;90.30;;;;;;4998555;28;20416;-64
2021/03/31 03:02:52;;;;;;;41.03;26.42;;;10.10;90.40;;;;;;4998961;28;20226;-64
2021/03/31 03:05:21;;;;;;;48.97;28.55;;;10.00;90.50;;;;;;4998117;28;20245;-63
2021/03/31 03:07:48;;;;;;;40.95;27.50;;;10.00;90.60;;;;;;4997934;28;20290;-64
2021/03/31 03:10:16;;;;;;;44.47;28.08;;;10.00;90.60;;;;;;5001661;28;20490;-63
2021/03/31 03:12:51;;;;;;;44.67;27.92;;;10.00;90.50;;;;;;4998021;28;20219;-64
2021/03/31 03:15:19;;;;;;;39.60;27.30;;;10.00;90.50;;;;;;5010128;28;20277;-64
2021/03/31 03:17:47;;;;;;;41.10;26.85;;;10.00;90.50;;;;;;4998628;28;20270;-64
2021/03/31 03:20:15;;;;;;;39.28;27.42;;;10.00;90.60;;;;;;4998356;28;20214;-64
2021/03/31 03:22:46;;;;;;;37.78;28.20;;;10.00;90.70;;;;;;5000912;28;20307;-63
2021/03/31 03:25:13;;;;;;;36.88;27.20;;;9.90;90.60;;;;;;4998432;28;20254;-64
2021/03/31 03:27:43;;;;;;;36.63;23.38;;;9.90;90.60;;;;;;4998555;28;20734;-64
2021/03/31 03:30:12;;;;;;;30.05;24.38;;;9.90;91.10;;;;;;5011581;28;20398;-64
2021/03/31 03:32:42;;;;;;;44.75;28.60;;;9.80;91.30;;;;;;4987724;28;20279;-63
2021/03/31 03:35:11;;;;;;;47.50;30.20;;;9.60;91.70;;;;;;4991947;28;20223;-63
2021/03/31 03:37:39;;;;;;;39.03;27.65;;;9.20;92.70;;;;;;4996577;28;20397;-64
2021/03/31 03:40:06;;;;;;;47.08;29.00;;;9.30;92.50;;;;;;5016017;28;20233;-63
2021/03/31 03:42:32;;;;;;;42.08;28.80;;;9.40;92.20;;;;;;4998050;28;20229;-63
2021/03/31 03:45:03;;;;;;;42.10;28.98;;;9.50;92.00;;;;;;4998272;28;20234;-65
2021/03/31 03:47:30;;;;;;;41.65;26.83;;;9.50;91.90;;;;;;4990705;28;20517;-63
2021/03/31 03:49:58;;;;;;;44.42;29.92;;;9.60;91.80;;;;;;4997398;28;20242;-63
2021/03/31 03:52:25;;;;;;;44.30;28.48;;;9.50;91.80;;;;;;4997923;28;20456;-65
2021/03/31 03:54:53;;;;;;;41.15;27.33;;;9.50;91.90;;;;;;4997350;28;20214;-63
2021/03/31 03:57:24;;;;;;;36.38;25.95;;;10.50;92.30;;;;;;4997877;28;20215;-64
2021/03/31 03:59:51;;;;;;;46.30;27.75;;;9.40;92.20;;;;;;5003485;28;20405;-64
2021/03/31 04:02:17;;;;;;;40.13;29.25;;;9.30;92.60;;;;;;4997985;28;20325;-63
2021/03/31 04:04:45;;;;;;;42.22;28.38;;;9.30;92.40;;;;;;5002766;28;20305;-63
2021/03/31 04:07:15;;;;;;;44.42;30.08;;;9.20;92.50;;;;;;4978397;28;20287;-63
2021/03/31 04:09:47;;;;;;;43.97;28.38;;;9.10;92.80;;;;;;4997376;28;20759;-64
2021/03/31 04:12:16;;;;;;;49.35;28.75;;;9.00;93.00;;;;;;4992141;28;20232;-64
2021/03/31 04:14:43;;;;;;;44.08;29.00;;;9.10;92.90;;;;;;5002720;28;20218;-64
2021/03/31 04:17:14;;;;;;;47.17;29.63;;;9.20;92.80;;;;;;4997960;28;20281;-63
2021/03/31 04:19:43;;;;;;;55.60;31.23;;;9.20;92.90;;;;;;5002566;28;20202;-64
2021/03/31 04:22:10;;;;;;;61.38;29.90;;;9.20;92.90;;;;;;5000414;28;20212;-64
2021/03/31 04:24:38;;;;;;;46.75;31.92;;;9.20;92.90;;;;;;4997073;28;20222;-64
2021/03/31 04:27:11;;;;;;;38.55;27.98;;;9.30;92.60;;;;;;4997541;28;20309;-64
2021/03/31 04:29:42;;;;;;;44.63;30.50;;;9.20;92.90;;;;;;4979955;28;20536;-63
2021/03/31 04:32:12;;;;;;;40.58;27.65;;;9.40;92.90;;;;;;4960914;28;20242;-63
2021/03/31 04:34:39;;;;;;;50.17;30.77;;;9.30;93.00;;;;;;4979273;28;20435;-64
2021/03/31 04:37:06;;;;;;;49.45;28.88;;;9.20;93.00;;;;;;4995760;28;20212;-65
2021/03/31 04:39:33;;;;;;;39.65;27.48;;;9.30;93.10;;;;;;4997151;28;20221;-65
2021/03/31 04:41:59;;;;;;;39.10;27.25;;;9.30;92.60;;;;;;4984844;28;20206;-64
2021/03/31 04:44:26;;;;;;;39.10;26.05;;;9.40;92.40;;;;;;4978173;28;20230;-65
2021/03/31 04:46:52;;;;;;;42.58;29.10;;;9.40;92.20;;;;;;4986893;28;20206;-64
2021/03/31 04:49:19;;;;;;;39.70;26.42;;;9.60;92.30;;;;;;4997699;28;20341;-64
2021/03/31 04:51:45;;;;;;;41.05;26.77;;;9.60;92.20;;;;;;5000400;28;20278;-63
2021/03/31 04:54:12;;;;;;;37.65;26.15;;;9.70;91.90;;;;;;5000955;28;20215;-63
2021/03/31 04:56:39;;;;;;;42.83;28.48;;;9.80;91.70;;;;;;5000810;28;20219;-64
2021/03/31 04:59:05;;;;;;;40.80;27.23;;;9.90;91.80;;;;;;5000828;28;20407;-63
2021/03/31 05:01:32;;;;;;;44.13;27.23;;;10.10;91.70;;;;;;5000952;28;20211;-64
2021/03/31 05:03:58;;;;;;;41.35;27.25;;;10.30;91.20;;;;;;5000599;28;20302;-63
2021/03/31 05:06:25;;;;;;;47.03;27.80;;;10.60;90.80;;;;;;5006166;28;20240;-64
2021/03/31 05:08:51;;;;;;;40.17;28.05;;;11.00;90.70;;;;;;5011750;28;20216;-64
2021/03/31 05:11:18;;;;;;;60.33;29.85;;;11.20;89.30;;;;;;5006772;28;20213;-64
2021/03/31 05:13:45;;;;;;;52.80;28.92;;;11.60;89.80;;;;;;5006186;28;20234;-65
2021/03/31 05:16:12;;;;;;;41.72;28.35;;;12.10;88.50;;;;;;5006235;28;20216;-66
2021/03/31 05:18:38;;;;;;;41.20;27.85;;;12.60;86.60;;;;;;5005647;28;20213;-66
2021/03/31 05:21:05;;;;;;;52.95;30.63;;;13.00;84.90;;;;;;4994373;28;20214;-64
2021/03/31 05:23:31;;;;;;;56.58;32.38;;;13.50;82.70;;;;;;5000389;28;20508;-64
2021/03/31 05:25:58;;;;;;;46.70;30.08;;;14.10;80.60;;;;;;5001166;28;20231;-63
2021/03/31 05:28:24;;;;;;;70.30;33.03;;;14.60;79.20;;;;;;4982987;28;20212;-65
2021/03/31 05:30:51;;;;;;;58.95;32.50;;;14.50;77.40;;;;;;4990183;28;20211;-66
2021/03/31 05:33:18;;;;;;;51.83;33.80;;;14.90;75.80;;;;;;4985941;28;20221;-65
2021/03/31 05:35:44;;;;;;;62.63;34.10;;;15.80;75.10;;;;;;5000024;28;20506;-65
2021/03/31 05:38:11;;;;;;;53.10;30.70;;;15.70;72.10;;;;;;4999960;28;20421;-64
2021/03/31 05:40:37;;;;;;;51.97;31.57;;;16.50;70.70;;;;;;4986717;28;20520;-64
2021/03/31 05:43:05;;;;;;;56.17;31.57;;;17.00;67.10;;;;;;5000230;28;20476;-65
2021/03/31 05:45:32;;;;;;;62.90;33.50;;;17.40;64.50;;;;;;4999589;28;20454;-65
2021/03/31 05:48:00;;;;;;;55.70;33.03;;;17.80;63.80;;;;;;4990917;28;20444;-65
2021/03/31 05:50:27;;;;;;;57.10;32.17;;;18.40;61.70;;;;;;4962208;28;20411;-65
2021/03/31 05:52:54;;;;;;;50.40;29.60;;;18.60;59.50;;;;;;4983121;28;20457;-66
2021/03/31 05:55:21;;;;;;;56.47;31.20;;;18.80;58.00;;;;;;4990089;28;20417;-66
2021/03/31 05:57:47;;;;;;;43.93;28.77;;;19.50;56.00;;;;;;4999822;28;20423;-66
2021/03/31 06:00:18;;;;;;;43.73;29.33;;;20.50;52.50;;;;;;4998629;28;20408;-65
2021/03/31 06:02:46;;;;;;;55.07;31.83;;;20.90;50.80;;;;;;4999106;28;20465;-65
2021/03/31 06:05:14;;;;;;;40.87;30.73;;;21.40;49.80;;;;;;4993420;28;20463;-66
2021/03/31 06:07:46;;;;;;;60.20;30.63;;;22.10;47.10;;;;;;4992268;28;20789;-65
2021/03/31 06:10:18;;;;;;;54.20;29.93;;;23.00;45.20;;;;;;5005150;28;20503;-67
2021/03/31 06:12:55;;;;;;;46.27;32.13;;;24.00;43.70;;;;;;4999483;28;20800;-66
2021/03/31 06:15:40;;;;;;;66.80;34.53;;;24.90;41.50;;;;;;5005121;28;20438;-65
2021/03/31 06:18:07;;;;;;;54.23;32.67;;;24.60;41.80;;;;;;4997857;28;20436;-65
2021/03/31 06:20:45;;;;;;;38.20;30.30;;;24.20;41.70;;;;;;4999123;28;20442;-66
2021/03/31 06:26:30;;;;;;;51.90;29.93;;;23.00;43.40;;;;;;4995091;28;20436;-65
2021/03/31 06:29:08;;;;;;;39.70;29.70;;;23.20;43.10;;;;;;4999531;28;20444;-64
2021/03/31 06:31:44;;;;;;;52.57;32.27;;;23.40;42.90;;;;;;4998319;28;20431;-65
2021/03/31 06:34:23;;;;;;;56.10;30.10;;;23.90;41.30;;;;;;4998998;28;20432;-65
2021/03/31 06:36:56;;;;;;;40.67;28.10;;;23.90;41.40;;;;;;4998252;28;20422;-64
2021/03/31 06:39:34;;;;;;;34.60;30.03;;;24.50;40.40;;;;;;4998865;28;20452;-65
2021/03/31 06:42:15;;;;;;;52.53;33.00;;;24.70;39.30;;;;;;4984851;28;20748;-64
2021/03/31 06:47:57;;;;;;;52.00;32.30;;;25.80;38.20;;;;;;4999016;28;20442;-65
2021/03/31 06:50:18;;;;;;;34.20;28.40;;;27.60;36.00;;;;;;4994545;28;20615;-65
2021/03/31 06:53:11;;;;;;;56.00;30.23;;;29.10;33.60;;;;;;4998614;28;20520;-65
2021/03/31 06:55:38;;;;;;;30.63;27.03;;;30.30;31.70;;;;;;4995012;28;20711;-66
2021/03/31 06:58:07;;;;;;;33.33;29.77;;;30.50;30.60;;;;;;5005542;28;20448;-66
2021/03/31 07:00:36;;;;;;;50.67;37.27;;;31.10;29.80;;;;;;5007607;28;20906;-65
2021/03/31 07:03:08;;;;;;;35.20;31.30;;;31.30;30.00;;;;;;5004048;28;20471;-66
2021/03/31 07:05:38;;;;;;;36.47;32.43;;;32.00;29.10;;;;;;5002315;28;20537;-66
2021/03/31 07:08:06;;;;;;;35.20;31.40;;;32.00;28.50;;;;;;4999828;28;20470;-65
2021/03/31 07:10:44;;;;;;;34.60;30.70;;;32.80;28.00;;;;;;5004565;28;20465;-64
2021/03/31 07:13:24;;;;;;;34.17;30.50;;;33.00;27.60;;;;;;4997578;28;20762;-66
2021/03/31 07:15:52;;;;;;;39.30;33.43;;;33.20;27.80;;;;;;4989211;28;20620;-66
2021/03/31 07:18:25;;;;;;;36.20;32.33;;;33.90;27.50;;;;;;5000675;28;20471;-66
2021/03/31 07:20:54;;;;;;;38.47;33.77;;;33.90;27.20;;;;;;4993673;28;20713;-65
2021/03/31 07:23:23;;;;;;;36.53;32.63;;;33.60;27.50;;;;;;5011657;28;20447;-66
2021/03/31 07:25:56;;;;;;;36.53;32.63;;;33.90;27.00;;;;;;5000979;28;20522;-66
2021/03/31 07:28:29;;;;;;;35.73;30.93;;;34.50;26.40;;;;;;5011749;28;20443;-65
2021/03/31 07:31:00;;;;;;;35.30;31.83;;;34.60;25.80;;;;;;5008540;28;20559;-65
2021/03/31 07:33:42;;;;;;;36.43;32.90;;;32.50;26.90;;;;;;5013420;28;20643;-65
2021/03/31 07:36:10;;;;;;;34.30;30.77;;;32.60;26.90;;;;;;4998011;28;20498;-65
2021/03/31 07:38:39;;;;;;;38.43;34.73;;;32.20;27.60;;;;;;4998568;28;20470;-66
2021/03/31 07:41:07;;;;;;;35.47;31.60;;;33.10;26.50;;;;;;4997896;28;20450;-66
2021/03/31 07:43:36;;;;;;;37.70;33.07;;;32.50;27.40;;;;;;4994571;28;20771;-66
2021/03/31 07:46:12;;;;;;;35.73;30.00;;;33.80;26.50;;;;;;4994358;28;20578;-65
2021/03/31 07:48:40;;;;;;;34.93;31.67;;;34.60;26.20;;;;;;4971357;28;20467;-67
2021/03/31 07:51:25;;;;;;;36.40;32.70;;;33.60;25.40;;;;;;4990562;28;20801;-66
2021/03/31 07:53:56;;;;;;;36.87;33.23;;;34.10;25.80;;;;;;4996580;28;20479;-67
2021/03/31 07:56:38;;;;;;;36.80;33.30;;;34.30;25.40;;;;;;4996846;28;20690;-67
2021/03/31 07:59:09;;;;;;;37.00;32.83;;;33.70;25.40;;;;;;4992120;28;20451;-65
2021/03/31 08:01:54;;;;;;;38.00;32.70;;;35.00;25.00;;;;;;4996705;28;20514;-65
2021/03/31 08:04:23;;;;;;;39.47;35.40;;;35.10;25.30;;;;;;4997124;28;20483;-66
2021/03/31 08:06:51;;;;;;;35.17;31.73;;;35.00;24.30;;;;;;4996491;28;20452;-66
2021/03/31 08:09:17;;;;;;;35.83;32.13;;;34.80;24.30;;;;;;4993314;28;20447;-66
2021/03/31 08:11:48;;;;;;;36.47;32.97;;;34.50;24.60;;;;;;4993145;28;20448;-65
2021/03/31 08:14:42;;;;;;;36.93;33.30;;;35.10;24.50;;;;;;4997129;28;20467;-66
2021/03/31 08:17:28;;;;;;;37.33;32.57;;;35.40;24.80;;;;;;4992674;28;20490;-66
2021/03/31 08:19:56;;;;;;;38.77;34.60;;;35.30;24.60;;;;;;4997917;28;20499;-65
2021/03/31 08:22:37;;;;;;;36.63;32.97;;;35.30;23.90;;;;;;4989217;28;20491;-65
2021/03/31 08:25:20;;;;;;;35.57;32.03;;;35.80;23.80;;;;;;4993513;28;20483;-65
2021/03/31 08:28:04;;;;;;;37.20;33.30;;;36.50;23.40;;;;;;4989101;28;20440;-66
2021/03/31 08:30:33;;;;;;;39.43;35.53;;;35.10;24.10;;;;;;4995545;28;20438;-66
2021/03/31 08:33:00;;;;;;;40.27;36.17;;;33.80;25.80;;;;;;5021526;28;20449;-66
2021/03/31 08:35:28;;;;;;;37.10;33.80;;;32.20;26.70;;;;;;5015035;28;20451;-65
2021/03/31 08:37:55;;;;;;;35.80;32.50;;;33.50;25.90;;;;;;5001409;28;20718;-65
2021/03/31 08:40:27;;;;;;;38.63;34.87;;;34.90;24.80;;;;;;4999184;28;20448;-66
2021/03/31 08:43:13;;;;;;;36.10;32.60;;;34.90;24.20;;;;;;5012804;28;20623;-66
2021/03/31 08:45:42;;;;;;;37.53;33.77;;;35.50;24.60;;;;;;5004690;28;20485;-65
2021/03/31 08:48:10;;;;;;;39.13;35.23;;;36.20;24.20;;;;;;4997227;28;20478;-66
2021/03/31 08:50:40;;;;;;;36.03;32.33;;;35.90;24.00;;;;;;5000077;28;20448;-66
2021/03/31 08:53:10;;;;;;;43.93;35.03;;;35.10;23.60;;;;;;4997953;28;20459;-65
2021/03/31 08:55:41;;;;;;;40.27;36.37;;;34.80;23.80;;;;;;4985965;28;20458;-66
2021/03/31 08:58:11;;;;;;;39.07;34.10;;;35.20;24.80;;;;;;4982528;28;21072;-66
2021/03/31 09:00:52;;;;;;;35.20;31.83;;;36.30;24.10;;;;;;4988566;28;20441;-66
2021/03/31 09:03:27;;;;;;;37.53;34.23;;;36.20;24.10;;;;;;4991699;28;20464;-66
2021/03/31 09:06:00;;;;;;;35.17;31.77;;;36.80;23.30;;;;;;4988649;28;20546;-66
2021/03/31 09:08:28;;;;;;;35.97;32.57;;;37.10;22.70;;;;;;4989660;28;20633;-66
2021/03/31 09:11:05;;;;;;;37.70;31.33;;;36.80;24.30;;;;;;4987048;28;20443;-65
2021/03/31 09:13:36;;;;;;;37.20;33.93;;;36.40;23.90;;;;;;4985195;28;20435;-65
2021/03/31 09:16:12;;;;;;;36.73;33.03;;;35.20;24.00;;;;;;4986519;28;20861;-65
2021/03/31 09:18:42;;;;;;;38.87;35.07;;;35.70;24.60;;;;;;4987483;28;20461;-65
2021/03/31 09:21:12;;;;;;;35.27;31.73;;;35.70;23.70;;;;;;4989291;28;20482;-66
2021/03/31 09:23:45;;;;;;;35.23;31.67;;;35.10;24.60;;;;;;4987317;28;20866;-66
2021/03/31 09:26:12;;;;;;;32.47;29.37;;;33.90;25.50;;;;;;4985594;28;20484;-67
2021/03/31 09:28:39;;;;;;;36.30;32.70;;;31.70;27.40;;;;;;4986636;28;20813;-66
2021/03/31 09:31:10;;;;;;;32.57;28.83;;;30.30;28.30;;;;;;4982865;28;21047;-67
2021/03/31 09:33:44;;;;;;;35.27;31.97;;;29.90;29.50;;;;;;4983237;28;20444;-65
2021/03/31 09:36:18;;;;;;;35.23;31.43;;;30.50;28.40;;;;;;4980794;28;20469;-67
2021/03/31 09:38:57;;;;;;;37.83;34.03;;;30.50;28.30;;;;;;4984292;28;20440;-66
2021/03/31 09:41:28;;;;;;;35.60;31.43;;;29.70;28.70;;;;;;4980764;28;20448;-66
2021/03/31 09:43:57;;;;;;;38.60;32.17;;;28.60;29.50;;;;;;4982760;28;20443;-66
2021/03/31 09:46:25;;;;;;;33.53;29.97;;;27.40;31.90;;;;;;4989783;28;20457;-65
2021/03/31 09:48:52;;;;;;;36.00;29.07;;;26.30;33.60;;;;;;4973715;28;20478;-66
2021/03/31 09:51:20;;;;;;;42.00;30.37;;;25.80;34.80;;;;;;4988899;28;20447;-65
2021/03/31 09:53:48;;;;;;;37.93;29.77;;;25.60;35.90;;;;;;4984169;28;20440;-65
2021/03/31 09:56:24;;;;;;;36.33;28.20;;;25.40;35.90;;;;;;4984784;28;20476;-67
2021/03/31 09:58:57;;;;;;;33.60;27.27;;;25.20;36.80;;;;;;4983196;28;20439;-65
2021/03/31 10:01:24;;;;;;;34.53;27.67;;;24.80;37.00;;;;;;4986529;28;20426;-65
2021/03/31 10:03:54;;;;;;;37.40;28.40;;;24.50;37.60;;;;;;4990751;28;20443;-65
2021/03/31 10:06:27;;;;;;;36.87;28.97;;;24.30;37.80;;;;;;4984326;28;20516;-66
2021/03/31 10:08:54;;;;;;;36.33;28.67;;;24.20;38.20;;;;;;4985858;28;20451;-66
2021/03/31 10:11:35;;;;;;;39.20;28.47;;;24.20;38.60;;;;;;4983177;28;20723;-66
2021/03/31 10:14:19;;;;;;;34.13;28.70;;;23.90;39.10;;;;;;4981831;28;20615;-67
2021/03/31 10:16:49;;;;;;;37.70;28.87;;;24.00;39.00;;;;;;4983220;28;20499;-66
2021/03/31 10:19:18;;;;;;;33.70;28.27;;;23.90;40.30;;;;;;4992145;28;20454;-65
2021/03/31 10:21:47;;;;;;;37.13;28.80;;;24.00;39.70;;;;;;4986520;28;20528;-66
2021/03/31 10:24:14;;;;;;;35.07;28.23;;;23.80;39.00;;;;;;4982946;28;20454;-66
2021/03/31 10:26:50;;;;;;;27.97;25.00;;;23.80;39.60;;;;;;4981750;28;20462;-65
2021/03/31 10:29:29;;;;;;;28.80;25.60;;;23.80;39.30;;;;;;4987181;28;20935;-66
2021/03/31 10:32:18;;;;;;;35.63;28.40;;;23.90;39.20;;;;;;4983047;28;20415;-66
2021/03/31 10:34:48;;;;;;;29.63;25.07;;;23.60;38.30;;;;;;4982258;28;20684;-65
2021/03/31 10:56:20;;;;;;;31.80;24.40;;;23.20;41.00;;;;;;4985117;28;20454;-65
2021/03/31 10:58:47;;;;;;;32.50;26.90;;;23.40;40.20;;;;;;4982233;28;20444;-66
2021/03/31 11:01:14;;;;;;;31.13;25.40;;;23.20;40.00;;;;;;4982263;28;20447;-66
2021/03/31 11:03:40;;;;;;;30.20;25.47;;;23.20;40.60;;;;;;4989886;28;20499;-66
2021/03/31 11:06:07;;;;;;;32.47;25.87;;;23.10;39.60;;;;;;4989236;28;20483;-66
2021/03/31 11:08:34;;;;;;;30.93;26.07;;;23.00;40.10;;;;;;4982994;28;20770;-66
2021/03/31 11:11:01;;;;;;;29.43;24.50;;;23.10;40.20;;;;;;4984536;28;20439;-66
2021/03/31 11:13:29;;;;;;;27.53;24.30;;;23.10;39.90;;;;;;4984671;28;20418;-65
2021/03/31 11:15:56;;;;;;;30.97;24.80;;;23.30;40.20;;;;;;4983795;28;20813;-66
2021/03/31 11:26:40;;;;;;;27.53;24.23;;;23.50;38.50;;;;;;4981392;28;20787;-66
2021/03/31 11:29:07;;;;;;;28.13;24.47;;;23.10;39.30;;;;;;4982852;28;20427;-66
2021/03/31 11:31:33;;;;;;;27.67;24.67;;;23.00;39.20;;;;;;4970427;28;20422;-66
2021/03/31 11:34:00;;;;;;;31.43;23.07;;;23.20;39.90;;;;;;4983663;28;20605;-66
2021/03/31 11:36:27;;;;;;;24.73;21.83;;;23.40;39.50;;;;;;4982160;28;20450;-66
2021/03/31 11:38:55;;;;;;;27.37;23.53;;;23.60;39.10;;;;;;4983489;28;20655;-65
2021/03/31 11:41:21;;;;;;;27.43;24.73;;;23.50;40.60;;;;;;4981377;28;20786;-65
2021/03/31 11:43:51;;;;;;;30.17;22.27;;;23.50;39.30;;;;;;4982827;28;20470;-65
2021/03/31 11:46:18;;;;;;;37.63;23.17;;;23.60;39.50;;;;;;4980344;28;20627;-66
2021/03/31 11:48:44;;;;;;;29.90;22.83;;;23.50;38.60;;;;;;4988148;28;20454;-66
2021/03/31 11:51:11;;;;;;;28.77;23.30;;;23.40;39.10;;;;;;4982773;28;20457;-65
2021/03/31 11:53:38;;;;;;;34.90;24.27;;;23.50;38.80;;;;;;4982438;28;20445;-66
2021/03/31 11:56:05;;;;;;;24.03;21.33;;;23.60;37.70;;;;;;4980865;28;20883;-65
2021/03/31 11:58:32;;;;;;;25.00;21.73;;;23.50;37.70;;;;;;4983174;28;20448;-66
2021/03/31 12:00:59;;;;;;;21.50;19.30;;;23.70;37.40;;;;;;4966103;28;20751;-66
2021/03/31 12:03:26;;;;;;;22.80;19.50;;;23.60;35.30;;;;;;4990263;28;20814;-65
2021/03/31 12:05:52;;;;;;;21.33;19.23;;;23.50;35.40;;;;;;4985763;28;20796;-65
2021/03/31 12:08:19;;;;;;;22.50;18.43;;;23.40;35.70;;;;;;4989720;28;20482;-65
2021/03/31 12:10:46;;;;;;;26.83;24.10;;;23.10;35.50;;;;;;4983093;28;20825;-65
2021/03/31 12:13:13;;;;;;;27.90;21.93;;;23.20;37.20;;;;;;4983320;28;20433;-65
2021/03/31 12:15:40;;;;;;;33.50;22.67;;;23.20;38.70;;;;;;4968980;28;20415;-66
2021/03/31 12:18:06;;;;;;;44.13;22.77;;;23.40;38.70;;;;;;4985341;28;20826;-65
2021/03/31 12:20:33;;;;;;;29.90;21.03;;;23.50;38.20;;;;;;4986099;28;20436;-66
2021/03/31 12:23:00;;;;;;;25.40;22.87;;;23.50;37.30;;;;;;4984069;28;20443;-66
2021/03/31 12:25:26;;;;;;;28.97;25.80;;;23.40;39.40;;;;;;4983949;28;20484;-65
2021/03/31 12:27:56;;;;;;;27.67;22.90;;;23.40;37.30;;;;;;4985811;28;20420;-66
2021/03/31 12:30:24;;;;;;;28.20;24.27;;;23.50;37.50;;;;;;4986596;28;20733;-67
2021/03/31 12:32:51;;;;;;;33.30;25.27;;;23.60;37.80;;;;;;4981449;28;20427;-66
2021/03/31 12:35:19;;;;;;;31.20;24.40;;;23.30;37.70;;;;;;4983333;28;20469;-65
2021/03/31 12:37:46;;;;;;;25.03;21.20;;;23.40;37.90;;;;;;4978942;28;20423;-65
2021/03/31 12:40:13;;;;;;;22.63;19.50;;;23.40;37.40;;;;;;4967254;28;20478;-66
2021/03/31 12:42:40;;;;;;;29.43;20.20;;;23.50;37.30;;;;;;4978120;28;20423;-65
2021/03/31 12:45:08;;;;;;;22.53;18.83;;;23.40;36.40;;;;;;4986072;28;20487;-66
2021/03/31 12:47:40;;;;;;;29.40;19.60;;;23.50;37.20;;;;;;4982273;28;20730;-65
2021/03/31 12:50:11;;;;;;;18.30;16.37;;;23.50;37.00;;;;;;4985880;28;20429;-65
2021/03/31 12:55:14;;;;;;;19.40;17.37;;;23.90;33.60;;;;;;4983268;28;20427;-65
2021/03/31 12:57:41;;;;;;;23.27;16.37;;;23.90;35.20;;;;;;4978586;28;20462;-65
2021/03/31 13:00:10;;;;;;;17.90;14.63;;;23.80;34.60;;;;;;4978313;28;20433;-65
2021/03/31 13:02:57;;;;;;;17.83;16.03;;;23.80;34.60;;;;;;4982304;28;20494;-66
2021/03/31 13:05:24;;;;;;;19.23;15.43;;;23.50;34.80;;;;;;4989312;28;20971;-66
2021/03/31 13:07:51;;;;;;;20.27;16.03;;;23.10;34.20;;;;;;4980839;28;20419;-65
2021/03/31 13:10:40;;;;;;;15.90;14.10;;;23.10;34.90;;;;;;4992096;28;20413;-66
2021/03/31 13:24:27;;;;;;;24.87;18.53;;;23.30;35.40;;;;;;5001501;28;20651;-66
2021/03/31 13:35:07;;;;;;;18.03;12.93;;;23.30;35.90;;;;;;4961254;28;20786;-66
2021/03/31 13:40:33;;;;;;;14.07;12.47;;;23.30;32.40;;;;;;4979443;28;20685;-65
2021/03/31 13:43:00;;;;;;;15.27;11.60;;;23.10;31.20;;;;;;5000306;28;20509;-66